createdAt,value
2023-04-13T00:01:09.412Z,3.06
2023-04-13T00:03:39.719Z,3.04
2023-04-13T00:06:11.353Z,3.01
2023-04-13T00:08:42.986Z,2.97
2023-04-13T00:11:11.614Z,2.92
2023-04-13T00:13:43.156Z,2.89
2023-04-13T00:16:13.911Z,2.87
2023-04-13T00:18:42.521Z,2.85
2023-04-13T00:21:10.933Z,2.78
2023-04-13T00:23:39.655Z,2.81
2023-04-13T00:26:08.159Z,2.79
2023-04-13T00:28:36.482Z,2.75
2023-04-13T00:31:05.489Z,2.72
2023-04-13T00:33:35.550Z,2.70
2023-04-13T00:36:04.026Z,2.69
2023-04-13T00:38:32.351Z,2.69
2023-04-13T00:41:02.292Z,2.66
2023-04-13T00:43:30.669Z,2.65
2023-04-13T00:46:00.089Z,2.64
2023-04-13T00:48:28.735Z,2.64
2023-04-13T00:50:59.234Z,2.63
2023-04-13T00:53:27.847Z,2.62
2023-04-13T00:55:57.244Z,2.62
2023-04-13T00:58:26.226Z,2.63
2023-04-13T01:00:54.669Z,2.62
2023-04-13T01:03:23.176Z,2.61
2023-04-13T01:06:08.973Z,2.62
2023-04-13T01:08:41.889Z,2.62
2023-04-13T01:11:18.810Z,2.58
2023-04-13T01:13:53.766Z,2.58
2023-04-13T01:16:24.979Z,2.58
2023-04-13T01:18:55.164Z,2.58
2023-04-13T01:21:30.445Z,2.56
2023-04-13T01:24:18.289Z,2.55
2023-04-13T01:26:57.358Z,2.55
2023-04-13T01:29:28.934Z,2.55
2023-04-13T01:31:58.692Z,2.52
2023-04-13T01:34:27.533Z,2.50
2023-04-13T01:36:56.993Z,2.48
2023-04-13T01:39:27.017Z,2.49
2023-04-13T01:42:03.889Z,2.50
2023-04-13T01:44:36.182Z,2.49
2023-04-13T01:47:16.079Z,2.50
2023-04-13T01:50:19.594Z,2.50
2023-04-13T01:53:08.240Z,2.49
2023-04-13T01:55:42.175Z,2.48
2023-04-13T01:58:13.645Z,2.46
2023-04-13T02:00:45.046Z,2.47
2023-04-13T02:03:16.593Z,2.47
2023-04-13T02:05:45.241Z,2.46
2023-04-13T02:08:14.066Z,2.42
2023-04-13T02:10:47.059Z,2.41
2023-04-13T02:13:15.483Z,2.39
2023-04-13T02:15:45.822Z,2.40
2023-04-13T02:18:14.615Z,2.39
2023-04-13T02:20:46.442Z,2.34
2023-04-13T02:23:16.016Z,2.34
2023-04-13T02:25:47.956Z,2.33
2023-04-13T02:28:17.971Z,2.31
2023-04-13T02:30:49.185Z,2.29
2023-04-13T02:33:19.285Z,2.25
2023-04-13T02:35:48.945Z,2.23
2023-04-13T02:38:18.799Z,2.19
2023-04-13T02:40:55.774Z,2.17
2023-04-13T02:43:24.315Z,2.14
2023-04-13T02:45:54.641Z,2.09
2023-04-13T02:48:25.780Z,2.10
2023-04-13T02:50:56.399Z,2.07
2023-04-13T02:53:29.603Z,2.05
2023-04-13T02:56:02.749Z,2.01
2023-04-13T02:58:32.593Z,2.00
2023-04-13T03:01:06.697Z,1.97
2023-04-13T03:03:36.748Z,1.95
2023-04-13T03:06:05.544Z,1.90
2023-04-13T03:08:47.992Z,1.87
2023-04-13T03:11:26.303Z,1.83
2023-04-13T03:14:21.559Z,1.79
2023-04-13T03:16:56.639Z,1.79
2023-04-13T03:19:29.071Z,1.77
2023-04-13T03:21:57.496Z,1.74
2023-04-13T03:24:29.007Z,1.71
2023-04-13T03:27:02.636Z,1.67
2023-04-13T03:29:37.233Z,1.61
2023-04-13T03:32:08.540Z,1.59
2023-04-13T03:34:44.375Z,1.54
2023-04-13T03:37:14.751Z,1.50
2023-04-13T03:39:43.341Z,1.45
2023-04-13T03:42:16.993Z,1.40
2023-04-13T03:44:53.233Z,1.30
2023-04-13T03:47:23.324Z,1.29
2023-04-13T03:49:52.398Z,1.22
2023-04-13T03:52:21.456Z,1.17
2023-04-13T03:54:56.728Z,1.15
2023-04-13T03:57:27.505Z,1.14
2023-04-13T03:59:56.979Z,1.12
2023-04-13T04:02:52.404Z,1.11
2023-04-13T04:05:28.338Z,1.07
2023-04-13T04:08:02.574Z,1.04
2023-04-13T04:10:31.201Z,1.02
2023-04-13T04:13:00.815Z,0.98
2023-04-13T04:15:31.260Z,0.96
2023-04-13T04:18:05.816Z,0.94
2023-04-13T04:20:35.164Z,0.91
2023-04-13T04:23:05.222Z,0.86
2023-04-13T04:25:42.887Z,0.83
2023-04-13T04:28:16.199Z,0.80
2023-04-13T04:30:45.885Z,0.77
2023-04-13T04:33:22.613Z,0.72
2023-04-13T04:35:52.020Z,0.67
2023-04-13T04:38:24.816Z,0.64
2023-04-13T04:40:57.850Z,0.62
2023-04-13T04:43:29.760Z,0.56
2023-04-13T04:45:58.910Z,0.54
2023-04-13T04:48:32.255Z,0.51
2023-04-13T04:51:00.782Z,0.54
2023-04-13T04:53:34.364Z,0.54
2023-04-13T04:56:07.277Z,0.55
2023-04-13T04:58:46.422Z,0.55
2023-04-13T05:01:15.671Z,0.52
2023-04-13T05:03:46.198Z,0.50
2023-04-13T05:06:32.725Z,0.48
2023-04-13T05:09:03.742Z,0.48
2023-04-13T05:11:34.009Z,0.47
2023-04-13T05:14:04.832Z,0.44
2023-04-13T05:16:34.436Z,0.43
2023-04-13T05:19:12.685Z,0.39
2023-04-13T05:21:55.523Z,0.34
2023-04-13T05:24:24.902Z,0.31
2023-04-13T05:26:54.493Z,0.26
2023-04-13T05:29:24.247Z,0.22
2023-04-13T05:31:52.803Z,0.19
2023-04-13T05:34:23.053Z,0.16
2023-04-13T05:37:05.423Z,0.15
2023-04-13T05:39:33.959Z,0.13
2023-04-13T05:42:02.606Z,0.13
2023-04-13T05:44:34.503Z,0.12
2023-04-13T05:47:03.589Z,0.13
2023-04-13T05:49:35.912Z,0.16
2023-04-13T05:52:06.801Z,0.16
2023-04-13T05:54:44.080Z,0.21
2023-04-13T05:57:12.445Z,0.24
2023-04-13T05:59:45.552Z,0.29
2023-04-13T06:02:16.236Z,0.33
2023-04-13T06:04:46.632Z,0.38
2023-04-13T06:07:16.506Z,0.47
2023-04-13T06:09:44.834Z,0.57
2023-04-13T06:12:13.737Z,0.80
2023-04-13T06:14:43.047Z,1.06
2023-04-13T06:17:11.500Z,1.38
2023-04-13T06:19:39.935Z,1.70
2023-04-13T06:22:09.661Z,2.05
2023-04-13T06:24:40.666Z,2.53
2023-04-13T06:27:11.435Z,3.04
2023-04-13T06:29:41.724Z,3.42
2023-04-13T06:32:12.295Z,3.79
2023-04-13T06:34:41.234Z,4.14
2023-04-13T06:37:11.792Z,4.48
2023-04-13T06:39:47.317Z,4.80
2023-04-13T06:42:16.792Z,5.12
2023-04-13T06:44:59.745Z,5.49
2023-04-13T06:47:33.640Z,5.83
2023-04-13T06:50:06.612Z,6.08
2023-04-13T06:52:39.184Z,6.50
2023-04-13T06:55:08.117Z,6.92
2023-04-13T06:57:40.078Z,7.21
2023-04-13T07:00:26.072Z,7.52
2023-04-13T07:02:59.286Z,7.66
2023-04-13T07:05:27.960Z,8.02
2023-04-13T07:08:03.833Z,8.40
2023-04-13T07:10:32.741Z,8.55
2023-04-13T07:13:05.347Z,8.81
2023-04-13T07:15:34.664Z,9.06
2023-04-13T07:18:03.225Z,9.50
2023-04-13T07:20:31.491Z,9.52
2023-04-13T07:23:00.096Z,9.90
2023-04-13T07:25:29.861Z,9.79
2023-04-13T07:27:58.870Z,10.26
2023-04-13T07:30:27.246Z,10.64
2023-04-13T07:32:57.457Z,10.62
2023-04-13T07:35:26.209Z,10.69
2023-04-13T07:37:54.503Z,10.62
2023-04-13T07:40:23.674Z,10.74
2023-04-13T07:42:57.586Z,11.01
2023-04-13T07:45:27.583Z,11.48
2023-04-13T07:47:55.719Z,11.42
2023-04-13T07:50:24.125Z,11.78
2023-04-13T07:52:53.274Z,12.07
2023-04-13T07:55:24.594Z,12.76
2023-04-13T07:57:54.251Z,13.30
2023-04-13T08:00:24.911Z,13.92
2023-04-13T08:02:58.350Z,14.50
2023-04-13T08:05:28.794Z,15.18
2023-04-13T08:07:58.465Z,15.58
2023-04-13T08:10:26.686Z,15.60
2023-04-13T08:12:56.621Z,16.12
2023-04-13T08:15:27.835Z,16.01
2023-04-13T08:17:56.782Z,16.56
2023-04-13T08:20:25.734Z,16.58
2023-04-13T08:22:56.439Z,16.68
2023-04-13T08:25:25.181Z,17.09
2023-04-13T08:27:53.967Z,17.21
2023-04-13T08:30:22.666Z,17.52
2023-04-13T08:32:58.424Z,17.66
2023-04-13T08:35:26.977Z,17.97
2023-04-13T08:37:55.727Z,17.32
2023-04-13T08:40:25.568Z,17.95
2023-04-13T08:42:57.213Z,17.75
2023-04-13T08:45:28.275Z,17.85
2023-04-13T08:47:59.674Z,18.08
2023-04-13T08:50:28.141Z,18.11
2023-04-13T08:52:57.781Z,18.35
2023-04-13T08:55:27.675Z,18.37
2023-04-13T08:58:01.844Z,18.35
2023-04-13T09:00:31.282Z,18.63
2023-04-13T09:03:11.123Z,18.52
2023-04-13T09:05:45.910Z,18.70
2023-04-13T09:08:17.130Z,19.02
2023-04-13T09:10:49.245Z,19.08
2023-04-13T09:13:18.028Z,18.86
2023-04-13T09:15:50.753Z,18.98
2023-04-13T09:18:29.475Z,18.99
2023-04-13T09:21:06.826Z,18.80
2023-04-13T09:23:35.231Z,18.79
2023-04-13T09:26:08.103Z,19.11
2023-04-13T09:28:47.494Z,19.11
2023-04-13T09:31:16.442Z,19.64
2023-04-13T09:33:47.654Z,19.32
2023-04-13T09:36:17.516Z,19.55
2023-04-13T09:38:46.778Z,19.67
2023-04-13T09:41:15.038Z,20.21
2023-04-13T09:43:43.312Z,20.57
2023-04-13T09:46:15.309Z,20.09
2023-04-13T09:48:43.746Z,20.61
2023-04-13T09:51:13.225Z,20.51
2023-04-13T09:53:43.791Z,20.20
2023-04-13T09:56:12.545Z,20.26
2023-04-13T09:58:44.886Z,20.33
2023-04-13T10:01:15.343Z,20.69
2023-04-13T10:03:44.618Z,20.86
2023-04-13T10:06:14.618Z,20.91
2023-04-13T10:08:43.187Z,20.56
2023-04-13T10:11:14.650Z,20.64
2023-04-13T10:13:49.813Z,21.02
2023-04-13T10:16:42.125Z,21.55
2023-04-13T10:19:14.010Z,21.57
2023-04-13T10:21:47.530Z,21.09
2023-04-13T10:24:17.864Z,21.54
2023-04-13T10:26:46.405Z,21.30
2023-04-13T10:29:16.998Z,21.43
2023-04-13T10:31:47.859Z,21.65
2023-04-13T10:34:26.539Z,21.64
2023-04-13T10:36:58.711Z,21.66
2023-04-13T10:39:28.861Z,22.19
2023-04-13T10:42:02.148Z,22.26
2023-04-13T10:44:41.911Z,22.29
2023-04-13T10:47:11.358Z,22.56
2023-04-13T10:49:41.062Z,22.57
2023-04-13T10:52:12.476Z,22.54
2023-04-13T10:54:42.659Z,21.62
2023-04-13T10:57:12.330Z,21.43
2023-04-13T10:59:56.336Z,21.52
2023-04-13T11:02:28.027Z,21.75
2023-04-13T11:04:56.899Z,21.60
2023-04-13T11:07:27.260Z,21.77
2023-04-13T11:12:30.382Z,21.91
2023-04-13T11:14:58.682Z,21.81
2023-04-13T11:17:27.476Z,22.00
2023-04-13T11:19:57.403Z,22.31
2023-04-13T11:22:29.075Z,22.36
2023-04-13T11:25:09.055Z,22.64
2023-04-13T11:27:38.188Z,22.12
2023-04-13T11:30:09.819Z,21.68
2023-04-13T11:32:42.866Z,20.71
2023-04-13T11:35:14.680Z,20.43
2023-04-13T11:37:48.792Z,20.52
2023-04-13T11:40:21.519Z,19.52
2023-04-13T11:42:51.720Z,19.55
2023-04-13T11:45:21.851Z,19.52
2023-04-13T11:47:52.014Z,19.73
2023-04-13T11:50:21.649Z,19.87
2023-04-13T11:52:56.910Z,20.22
2023-04-13T11:55:27.079Z,20.37
2023-04-13T11:57:56.875Z,20.36
2023-04-13T12:00:27.147Z,20.61
2023-04-13T12:05:29.470Z,20.39
2023-04-13T12:08:00.867Z,19.55
2023-04-13T12:10:39.362Z,19.10
2023-04-13T12:18:26.194Z,19.02
2023-04-13T12:20:57.085Z,19.14
2023-04-13T12:23:28.113Z,18.98
2023-04-13T12:25:58.604Z,18.89
2023-04-13T12:28:34.146Z,18.74
2023-04-13T12:31:08.251Z,19.04
2023-04-13T12:33:37.058Z,18.89
2023-04-13T12:36:06.806Z,19.10
2023-04-13T12:38:36.944Z,18.89
2023-04-13T12:41:10.219Z,18.49
2023-04-13T12:43:38.578Z,18.23
2023-04-13T12:46:07.243Z,18.10
2023-04-13T12:48:36.473Z,18.19
2023-04-13T12:51:05.055Z,18.44
2023-04-13T12:53:33.588Z,18.55
2023-04-13T12:56:03.651Z,18.52
2023-04-13T12:58:31.908Z,18.47
2023-04-13T13:01:00.654Z,18.33
2023-04-13T13:03:29.022Z,18.06
2023-04-13T13:05:57.537Z,17.85
2023-04-13T13:08:26.310Z,17.52
2023-04-13T13:10:54.695Z,17.44
2023-04-13T13:13:24.657Z,17.42
2023-04-13T13:15:53.081Z,17.34
2023-04-13T13:18:21.471Z,17.45
2023-04-13T13:20:53.502Z,17.02
2023-04-13T13:23:22.066Z,16.88
2023-04-13T13:26:07.582Z,16.64
2023-04-13T13:28:41.077Z,16.78
2023-04-13T13:31:09.581Z,16.67
2023-04-13T13:33:37.949Z,16.49
2023-04-13T13:36:06.170Z,16.38
2023-04-13T13:38:36.337Z,16.63
2023-04-13T13:41:05.288Z,16.70
2023-04-13T13:43:34.066Z,16.80
2023-04-13T13:46:05.573Z,16.63
2023-04-13T13:48:35.668Z,16.46
2023-04-13T13:51:23.054Z,16.31
2023-04-13T13:53:51.766Z,16.05
2023-04-13T13:56:20.091Z,15.73
2023-04-13T13:58:48.364Z,15.74
2023-04-13T14:01:18.512Z,15.68
2023-04-13T14:03:47.038Z,15.77
2023-04-13T14:06:15.757Z,15.78
2023-04-13T14:08:44.165Z,16.11
2023-04-13T14:11:12.703Z,16.20
2023-04-13T14:13:41.229Z,16.32
2023-04-13T14:16:09.631Z,16.11
2023-04-13T14:18:39.272Z,15.91
2023-04-13T14:21:07.813Z,15.77
2023-04-13T14:23:37.687Z,15.52
2023-04-13T14:26:06.396Z,15.24
2023-04-13T14:28:36.755Z,14.86
2023-04-13T14:31:05.674Z,14.48
2023-04-13T14:33:34.332Z,13.95
2023-04-13T14:36:04.390Z,13.88
2023-04-13T14:38:33.626Z,13.90
2023-04-13T14:41:01.908Z,14.27
2023-04-13T14:43:30.288Z,14.44
2023-04-13T14:45:59.125Z,14.55
2023-04-13T14:48:27.752Z,14.50
2023-04-13T14:50:56.611Z,14.55
2023-04-13T14:53:26.425Z,14.58
2023-04-13T14:55:54.706Z,14.56
2023-04-13T14:58:23.063Z,14.46
2023-04-13T15:00:51.311Z,14.28
2023-04-13T15:03:20.086Z,14.18
2023-04-13T15:05:49.870Z,14.24
2023-04-13T15:08:19.783Z,14.10
2023-04-13T15:10:49.889Z,14.17
2023-04-13T15:13:18.196Z,14.02
2023-04-13T15:15:48.187Z,14.06
2023-04-13T15:18:16.722Z,14.26
2023-04-13T15:20:45.005Z,14.18
2023-04-13T15:23:13.359Z,14.18
2023-04-13T15:25:42.257Z,14.15
2023-04-13T15:28:12.053Z,13.95
2023-04-13T15:30:42.614Z,13.96
2023-04-13T15:33:11.084Z,14.07
2023-04-13T15:35:39.528Z,14.17
2023-04-13T15:38:09.396Z,14.30
2023-04-13T15:40:38.594Z,14.30
2023-04-13T15:43:07.325Z,14.23
2023-04-13T15:45:36.993Z,14.26
2023-04-13T15:48:07.252Z,14.15
2023-04-13T15:50:35.805Z,14.20
2023-04-13T15:53:04.112Z,14.25
2023-04-13T15:55:32.345Z,14.29
2023-04-13T15:58:03.654Z,14.20
2023-04-13T16:00:32.152Z,14.19
2023-04-13T16:03:01.978Z,14.18
2023-04-13T16:05:31.753Z,14.29
2023-04-13T16:08:00.196Z,14.34
2023-04-13T16:10:28.549Z,14.24
2023-04-13T16:12:56.932Z,14.35
2023-04-13T16:15:26.317Z,14.40
2023-04-13T16:17:57.069Z,14.39
2023-04-13T16:20:28.610Z,14.28
2023-04-13T16:22:59.468Z,14.35
2023-04-13T16:25:28.067Z,14.53
2023-04-13T16:27:56.376Z,14.46
2023-04-13T16:30:24.661Z,14.26
2023-04-13T16:32:52.965Z,14.28
2023-04-13T16:35:21.542Z,14.13
2023-04-13T16:37:51.115Z,13.79
2023-04-13T16:40:19.630Z,13.74
2023-04-13T16:42:47.705Z,13.76
2023-04-13T16:45:16.305Z,13.78
2023-04-13T16:47:45.284Z,13.61
2023-04-13T16:50:13.664Z,13.69
2023-04-13T16:52:42.345Z,13.55
2023-04-13T16:55:15.167Z,13.42
2023-04-13T16:57:44.098Z,13.34
2023-04-13T17:00:15.081Z,13.32
2023-04-13T17:02:44.313Z,13.29
2023-04-13T17:05:13.872Z,13.15
2023-04-13T17:07:44.263Z,13.18
2023-04-13T17:10:15.163Z,13.19
2023-04-13T17:12:43.450Z,13.04
2023-04-13T17:15:12.242Z,12.95
2023-04-13T17:17:41.019Z,12.96
2023-04-13T17:20:10.487Z,12.92
2023-04-13T17:22:39.440Z,12.86
2023-04-13T17:25:08.748Z,12.83
2023-04-13T17:27:38.709Z,12.76
2023-04-13T17:30:09.013Z,12.76
2023-04-13T17:32:37.347Z,12.74
2023-04-13T17:35:06.513Z,12.73
2023-04-13T17:37:35.157Z,12.71
2023-04-13T17:40:04.423Z,12.56
2023-04-13T17:42:32.740Z,12.49
2023-04-13T17:45:03.207Z,12.51
2023-04-13T17:47:31.853Z,12.42
2023-04-13T17:50:00.153Z,12.20
2023-04-13T17:52:28.234Z,12.21
2023-04-13T17:54:56.663Z,12.22
2023-04-13T17:57:25.011Z,12.24
2023-04-13T17:59:53.489Z,12.28
2023-04-13T18:02:23.357Z,12.25
2023-04-13T18:04:51.934Z,12.24
2023-04-13T18:07:21.880Z,12.21
2023-04-13T18:09:50.282Z,12.39
2023-04-13T18:12:18.723Z,12.42
2023-04-13T18:14:47.039Z,12.26
2023-04-13T18:17:16.476Z,12.27
2023-04-13T18:19:47.063Z,12.08
2023-04-13T18:22:15.424Z,12.09
2023-04-13T18:24:43.763Z,12.05
2023-04-13T18:27:12.879Z,12.05
2023-04-13T18:29:41.309Z,11.98
2023-04-13T18:32:09.831Z,11.56
2023-04-13T18:34:40.320Z,11.65
2023-04-13T18:37:10.984Z,11.51
2023-04-13T18:39:39.627Z,11.40
2023-04-13T18:42:08.805Z,11.26
2023-04-13T18:44:37.087Z,11.18
2023-04-13T18:47:05.704Z,11.05
2023-04-13T18:49:34.060Z,10.94
2023-04-13T18:52:02.646Z,10.82
2023-04-13T18:54:32.774Z,10.74
2023-04-13T18:57:01.556Z,10.62
2023-04-13T18:59:35.370Z,10.49
2023-04-13T19:02:09.963Z,10.36
2023-04-13T19:04:45.353Z,10.19
2023-04-13T19:07:16.062Z,10.01
2023-04-13T19:09:52.470Z,9.88
2023-04-13T19:12:27.355Z,9.72
2023-04-13T19:15:00.962Z,9.56
2023-04-13T19:17:35.934Z,9.42
2023-04-13T19:20:10.936Z,9.31
2023-04-13T19:22:44.363Z,9.19
2023-04-13T19:25:17.694Z,9.03
2023-04-13T19:27:52.730Z,8.80
2023-04-13T19:30:27.434Z,8.48
2023-04-13T19:32:57.207Z,8.18
2023-04-13T19:35:26.439Z,7.87
2023-04-13T19:37:55.248Z,7.62
2023-04-13T19:40:27.224Z,7.39
2023-04-13T19:42:55.700Z,7.08
2023-04-13T19:45:23.767Z,6.97
2023-04-13T19:47:56.658Z,6.81
2023-04-13T19:50:26.591Z,6.74
2023-04-13T19:52:59.719Z,6.67
2023-04-13T19:55:37.597Z,6.66
2023-04-13T19:58:12.631Z,6.65
2023-04-13T20:00:48.908Z,6.60
2023-04-13T20:03:24.817Z,6.49
2023-04-13T20:06:01.908Z,6.47
2023-04-13T20:08:35.676Z,6.48
2023-04-13T20:11:13.010Z,6.50
2023-04-13T20:13:47.375Z,6.51
2023-04-13T20:16:22.809Z,6.50
2023-04-13T20:18:58.249Z,6.48
2023-04-13T20:21:32.655Z,6.47
2023-04-13T20:24:03.014Z,6.44
2023-04-13T20:26:37.696Z,6.39
2023-04-13T20:29:10.225Z,6.33
2023-04-13T20:31:42.028Z,6.29
2023-04-13T20:34:15.337Z,6.23
2023-04-13T20:36:48.019Z,6.10
2023-04-13T20:39:26.579Z,6.01
2023-04-13T20:42:05.741Z,5.92
2023-04-13T20:44:46.228Z,5.81
2023-04-13T20:47:26.762Z,5.72
2023-04-13T20:50:02.024Z,5.66
2023-04-13T20:52:35.773Z,5.59
2023-04-13T20:55:12.154Z,5.52
2023-04-13T20:57:50.256Z,5.45
2023-04-13T21:00:29.563Z,5.35
2023-04-13T21:03:05.562Z,5.31
2023-04-13T21:05:38.751Z,5.29
2023-04-13T21:08:12.823Z,5.28
2023-04-13T21:10:48.264Z,5.23
2023-04-13T21:13:26.173Z,5.16
2023-04-13T21:15:59.928Z,5.05
2023-04-13T21:18:29.739Z,4.98
2023-04-13T21:20:57.979Z,4.89
2023-04-13T21:23:31.415Z,4.77
2023-04-13T21:26:06.007Z,4.65
2023-04-13T21:28:43.673Z,4.57
2023-04-13T21:31:18.257Z,4.44
2023-04-13T21:33:52.841Z,4.36
2023-04-13T21:39:02.926Z,4.25
2023-04-13T21:41:34.334Z,4.21
2023-04-13T21:44:22.284Z,4.16
2023-04-13T21:46:59.644Z,4.10
2023-04-13T21:49:32.335Z,4.06
2023-04-13T21:52:02.254Z,4.01
2023-04-13T21:54:32.305Z,4.01
2023-04-13T21:57:01.137Z,4.03
2023-04-13T21:59:37.559Z,4.02
2023-04-13T22:02:08.198Z,3.98
2023-04-13T22:04:44.279Z,3.95
2023-04-13T22:07:14.573Z,3.91
2023-04-13T22:09:44.519Z,3.91
2023-04-13T22:12:14.277Z,3.91
2023-04-13T22:14:48.760Z,3.92
2023-04-13T22:17:18.473Z,3.93
2023-04-13T22:19:47.284Z,3.91
2023-04-13T22:22:22.777Z,3.89
2023-04-13T22:24:56.401Z,3.87
2023-04-13T22:27:24.960Z,3.84
2023-04-13T22:29:57.146Z,3.83
2023-04-13T22:32:32.146Z,3.79
2023-04-13T22:35:02.372Z,3.78
2023-04-13T22:37:37.916Z,3.72
2023-04-13T22:40:08.450Z,3.66
2023-04-13T22:42:39.399Z,3.58
2023-04-13T22:45:13.781Z,3.54
2023-04-13T22:47:43.249Z,3.47
2023-04-13T22:50:13.407Z,3.44
2023-04-13T22:52:43.182Z,3.41
2023-04-13T22:55:11.509Z,3.39
2023-04-13T22:57:41.704Z,3.38
2023-04-13T23:00:17.203Z,3.36
2023-04-13T23:02:50.520Z,3.31
2023-04-13T23:05:25.318Z,3.20
2023-04-13T23:07:54.811Z,3.16
2023-04-13T23:10:28.891Z,3.08
2023-04-13T23:12:58.136Z,2.98
2023-04-13T23:15:27.893Z,2.99
2023-04-13T23:17:57.041Z,2.92
2023-04-13T23:20:25.993Z,2.86
2023-04-13T23:22:54.284Z,2.81
2023-04-13T23:25:22.453Z,2.75
2023-04-13T23:27:50.640Z,2.65
2023-04-13T23:30:18.664Z,2.55
2023-04-13T23:32:48.177Z,2.48
2023-04-13T23:35:16.551Z,2.43
2023-04-13T23:37:45.526Z,2.41
2023-04-13T23:40:15.400Z,2.40
2023-04-13T23:42:43.854Z,2.37
2023-04-13T23:45:12.389Z,2.36
2023-04-13T23:47:40.749Z,2.36
2023-04-13T23:50:11.342Z,2.39
2023-04-13T23:52:39.719Z,2.38
2023-04-13T23:55:08.510Z,2.38
2023-04-13T23:57:37.207Z,2.34
